sensor_id;sensor_type;location;lat;lon;timestamp;pressure;altitude;pressure_sealevel;temperature;humidity
23172;BME280;11754;42.664;23.594;2023-10-13T00:01:01;95927.44;;;12.04;59.10
23172;BME280;11754;42.664;23.594;2023-10-13T00:03:30;95929.75;;;12.07;59.19
23172;BME280;11754;42.664;23.594;2023-10-13T00:05:57;95919.19;;;11.99;59.62
23172;BME280;11754;42.664;23.594;2023-10-13T00:08:27;95917.88;;;11.95;59.54
23172;BME280;11754;42.664;23.594;2023-10-13T00:10:54;95927.13;;;11.91;59.53
23172;BME280;11754;42.664;23.594;2023-10-13T00:13:26;95913.53;;;11.86;59.86
23172;BME280;11754;42.664;23.594;2023-10-13T00:15:51;95918.00;;;11.85;60.04
23172;BME280;11754;42.664;23.594;2023-10-13T00:18:30;95915.22;;;11.87;59.98
23172;BME280;11754;42.664;23.594;2023-10-13T00:21:00;95909.41;;;11.83;59.63
23172;BME280;11754;42.664;23.594;2023-10-13T00:23:25;95914.19;;;11.79;59.49
23172;BME280;11754;42.664;23.594;2023-10-13T00:25:54;95908.03;;;11.71;59.52
23172;BME280;11754;42.664;23.594;2023-10-13T00:28:24;95904.41;;;11.72;59.84
23172;BME280;11754;42.664;23.594;2023-10-13T00:30:51;95909.88;;;11.70;59.98
23172;BME280;11754;42.664;23.594;2023-10-13T00:33:26;95915.78;;;11.64;60.00
23172;BME280;11754;42.664;23.594;2023-10-13T00:35:52;95907.53;;;11.59;60.27
23172;BME280;11754;42.664;23.594;2023-10-13T00:38:17;95907.53;;;11.59;60.31
23172;BME280;11754;42.664;23.594;2023-10-13T00:40:45;95912.00;;;11.59;60.95
23172;BME280;11754;42.664;23.594;2023-10-13T00:43:21;95911.50;;;11.55;61.54
23172;BME280;11754;42.664;23.594;2023-10-13T00:45:49;95910.81;;;11.53;61.87
23172;BME280;11754;42.664;23.594;2023-10-13T00:48:32;95909.81;;;11.46;61.85
23172;BME280;11754;42.664;23.594;2023-10-13T00:51:07;95911.13;;;11.42;62.20
23172;BME280;11754;42.664;23.594;2023-10-13T00:53:37;95911.44;;;11.39;62.16
23172;BME280;11754;42.664;23.594;2023-10-13T00:56:07;95908.13;;;11.37;62.44
23172;BME280;11754;42.664;23.594;2023-10-13T00:58:34;95914.56;;;11.34;62.26
23172;BME280;11754;42.664;23.594;2023-10-13T01:01:03;95917.72;;;11.38;62.28
23172;BME280;11754;42.664;23.594;2023-10-13T01:03:52;95911.91;;;11.34;62.14
23172;BME280;11754;42.664;23.594;2023-10-13T01:06:21;95903.81;;;11.27;61.87
23172;BME280;11754;42.664;23.594;2023-10-13T01:09:02;95910.41;;;11.31;61.73
23172;BME280;11754;42.664;23.594;2023-10-13T01:11:40;95916.00;;;11.20;61.81
23172;BME280;11754;42.664;23.594;2023-10-13T01:14:08;95915.16;;;11.20;61.79
23172;BME280;11754;42.664;23.594;2023-10-13T01:16:33;95917.00;;;11.19;62.00
23172;BME280;11754;42.664;23.594;2023-10-13T01:19:01;95918.59;;;11.12;61.55
23172;BME280;11754;42.664;23.594;2023-10-13T01:21:30;95920.72;;;11.09;61.19
23172;BME280;11754;42.664;23.594;2023-10-13T01:23:57;95908.34;;;11.01;60.87
23172;BME280;11754;42.664;23.594;2023-10-13T01:26:23;95934.56;;;11.02;60.95
23172;BME280;11754;42.664;23.594;2023-10-13T01:28:56;95926.44;;;10.96;61.32
23172;BME280;11754;42.664;23.594;2023-10-13T01:31:22;95930.34;;;10.83;61.52
23172;BME280;11754;42.664;23.594;2023-10-13T01:33:54;95926.00;;;10.74;61.63
23172;BME280;11754;42.664;23.594;2023-10-13T01:36:24;95927.94;;;10.64;61.84
23172;BME280;11754;42.664;23.594;2023-10-13T01:38:49;95924.69;;;10.52;62.85
23172;BME280;11754;42.664;23.594;2023-10-13T01:41:18;95923.22;;;10.50;62.70
23172;BME280;11754;42.664;23.594;2023-10-13T01:43:44;95924.31;;;10.39;63.42
23172;BME280;11754;42.664;23.594;2023-10-13T01:46:10;95924.75;;;10.34;63.13
23172;BME280;11754;42.664;23.594;2023-10-13T01:48:39;95930.78;;;10.27;64.25
23172;BME280;11754;42.664;23.594;2023-10-13T01:51:05;95937.72;;;10.28;64.03
23172;BME280;11754;42.664;23.594;2023-10-13T01:53:35;95934.69;;;10.23;64.08
23172;BME280;11754;42.664;23.594;2023-10-13T01:59:23;95930.22;;;10.23;63.44
23172;BME280;11754;42.664;23.594;2023-10-13T02:01:48;95927.75;;;10.22;63.40
23172;BME280;11754;42.664;23.594;2023-10-13T02:04:16;95931.16;;;10.14;63.59
23172;BME280;11754;42.664;23.594;2023-10-13T02:06:46;95924.72;;;10.17;63.59
23172;BME280;11754;42.664;23.594;2023-10-13T02:09:11;95924.44;;;10.20;63.39
23172;BME280;11754;42.664;23.594;2023-10-13T02:11:51;95918.03;;;10.22;63.61
23172;BME280;11754;42.664;23.594;2023-10-13T02:14:21;95922.63;;;10.20;63.54
23172;BME280;11754;42.664;23.594;2023-10-13T02:16:51;95929.72;;;10.20;64.27
23172;BME280;11754;42.664;23.594;2023-10-13T02:19:20;95914.81;;;10.10;64.24
23172;BME280;11754;42.664;23.594;2023-10-13T02:21:46;95921.66;;;10.21;64.07
23172;BME280;11754;42.664;23.594;2023-10-13T02:24:23;95923.03;;;10.25;63.50
23172;BME280;11754;42.664;23.594;2023-10-13T02:26:55;95918.03;;;10.22;63.84
23172;BME280;11754;42.664;23.594;2023-10-13T02:29:21;95916.91;;;10.25;63.45
23172;BME280;11754;42.664;23.594;2023-10-13T02:31:47;95916.91;;;10.25;63.69
23172;BME280;11754;42.664;23.594;2023-10-13T02:34:21;95919.69;;;10.23;63.52
23172;BME280;11754;42.664;23.594;2023-10-13T02:36:48;95918.03;;;10.22;63.66
23172;BME280;11754;42.664;23.594;2023-10-13T02:39:19;95926.94;;;10.21;63.85
23172;BME280;11754;42.664;23.594;2023-10-13T02:45:13;95920.63;;;10.14;64.38
23172;BME280;11754;42.664;23.594;2023-10-13T02:47:38;95918.13;;;10.13;64.21
23172;BME280;11754;42.664;23.594;2023-10-13T02:50:04;95915.66;;;10.11;64.42
23172;BME280;11754;42.664;23.594;2023-10-13T02:52:38;95917.28;;;10.12;64.15
23172;BME280;11754;42.664;23.594;2023-10-13T02:55:07;95924.03;;;10.06;64.27
23172;BME280;11754;42.664;23.594;2023-10-13T02:57:35;95928.75;;;10.03;64.24
23172;BME280;11754;42.664;23.594;2023-10-13T03:00:01;95933.34;;;10.01;65.01
23172;BME280;11754;42.664;23.594;2023-10-13T03:02:37;95929.34;;;9.97;65.19
23172;BME280;11754;42.664;23.594;2023-10-13T03:05:19;95938.56;;;9.93;65.63
23172;BME280;11754;42.664;23.594;2023-10-13T03:07:44;95939.66;;;9.90;65.64
23172;BME280;11754;42.664;23.594;2023-10-13T03:10:10;95936.03;;;9.91;65.86
23172;BME280;11754;42.664;23.594;2023-10-13T03:12:36;95941.84;;;9.95;65.40
23172;BME280;11754;42.664;23.594;2023-10-13T03:15:07;95945.16;;;9.97;65.26
23172;BME280;11754;42.664;23.594;2023-10-13T03:17:44;95940.19;;;9.94;65.02
23172;BME280;11754;42.664;23.594;2023-10-13T03:20:15;95946.88;;;9.88;65.82
23172;BME280;11754;42.664;23.594;2023-10-13T03:22:42;95946.59;;;9.91;65.31
23172;BME280;11754;42.664;23.594;2023-10-13T03:25:11;95942.13;;;9.92;64.52
23172;BME280;11754;42.664;23.594;2023-10-13T03:27:43;95944.41;;;9.86;63.45
23172;BME280;11754;42.664;23.594;2023-10-13T03:30:18;95953.88;;;9.79;62.38
23172;BME280;11754;42.664;23.594;2023-10-13T03:32:43;95955.19;;;9.75;62.96
23172;BME280;11754;42.664;23.594;2023-10-13T03:35:12;95953.13;;;9.69;62.83
23172;BME280;11754;42.664;23.594;2023-10-13T03:37:39;95955.91;;;9.68;62.54
23172;BME280;11754;42.664;23.594;2023-10-13T03:40:06;95958.47;;;9.59;63.18
23172;BME280;11754;42.664;23.594;2023-10-13T03:42:54;95958.91;;;9.55;62.91
23172;BME280;11754;42.664;23.594;2023-10-13T03:45:32;95953.38;;;9.48;63.06
23172;BME280;11754;42.664;23.594;2023-10-13T03:48:19;95949.66;;;9.51;63.40
23172;BME280;11754;42.664;23.594;2023-10-13T03:50:52;95952.19;;;9.43;62.96
23172;BME280;11754;42.664;23.594;2023-10-13T03:53:34;95946.69;;;9.36;63.04
23172;BME280;11754;42.664;23.594;2023-10-13T03:56:04;95944.50;;;9.31;62.91
23172;BME280;11754;42.664;23.594;2023-10-13T03:58:39;95936.81;;;9.20;63.00
23172;BME280;11754;42.664;23.594;2023-10-13T04:01:10;95924.13;;;9.06;63.59
23172;BME280;11754;42.664;23.594;2023-10-13T04:03:37;95927.72;;;9.05;64.32
23172;BME280;11754;42.664;23.594;2023-10-13T04:06:06;95928.59;;;8.96;64.43
23172;BME280;11754;42.664;23.594;2023-10-13T04:08:32;95923.63;;;8.93;64.53
23172;BME280;11754;42.664;23.594;2023-10-13T04:11:13;95926.94;;;8.95;64.83
23172;BME280;11754;42.664;23.594;2023-10-13T04:13:57;95921.97;;;8.92;65.16
23172;BME280;11754;42.664;23.594;2023-10-13T04:16:41;95907.84;;;8.93;66.01
23172;BME280;11754;42.664;23.594;2023-10-13T04:19:20;95907.00;;;8.92;66.53
23172;BME280;11754;42.664;23.594;2023-10-13T04:21:49;95917.25;;;8.95;66.61
23172;BME280;11754;42.664;23.594;2023-10-13T04:24:23;95915.56;;;8.94;67.29
23172;BME280;11754;42.664;23.594;2023-10-13T04:27:03;95927.91;;;8.94;67.12
23172;BME280;11754;42.664;23.594;2023-10-13T04:29:38;95919.72;;;8.97;67.47
23172;BME280;11754;42.664;23.594;2023-10-13T04:32:36;95937.47;;;8.95;68.02
23172;BME280;11754;42.664;23.594;2023-10-13T04:35:06;95925.97;;;8.96;68.04
23172;BME280;11754;42.664;23.594;2023-10-13T04:37:38;95931.91;;;8.98;67.83
23172;BME280;11754;42.664;23.594;2023-10-13T04:40:20;95933.88;;;8.96;67.86
23172;BME280;11754;42.664;23.594;2023-10-13T04:42:50;95934.41;;;8.99;67.60
23172;BME280;11754;42.664;23.594;2023-10-13T04:45:19;95942.13;;;9.01;67.50
23172;BME280;11754;42.664;23.594;2023-10-13T04:47:59;95950.72;;;9.03;67.04
23172;BME280;11754;42.664;23.594;2023-10-13T04:50:46;95945.47;;;9.03;67.36
23172;BME280;11754;42.664;23.594;2023-10-13T04:53:15;95944.63;;;9.02;67.19
23172;BME280;11754;42.664;23.594;2023-10-13T04:55:55;95943.91;;;9.10;67.33
23172;BME280;11754;42.664;23.594;2023-10-13T04:58:43;95946.34;;;9.21;66.46
23172;BME280;11754;42.664;23.594;2023-10-13T05:01:31;95952.00;;;9.26;66.42
23172;BME280;11754;42.664;23.594;2023-10-13T05:04:35;95960.59;;;9.28;65.45
23172;BME280;11754;42.664;23.594;2023-10-13T05:07:19;95967.91;;;9.34;64.84
23172;BME280;11754;42.664;23.594;2023-10-13T05:10:05;95975.19;;;9.41;64.83
23172;BME280;11754;42.664;23.594;2023-10-13T05:12:49;95984.84;;;9.50;63.99
23172;BME280;11754;42.664;23.594;2023-10-13T05:15:33;95978.31;;;9.54;63.62
23172;BME280;11754;42.664;23.594;2023-10-13T05:18:17;95970.13;;;9.57;63.56
23172;BME280;11754;42.664;23.594;2023-10-13T05:21:01;95985.34;;;9.63;63.08
23172;BME280;11754;42.664;23.594;2023-10-13T05:23:44;95988.94;;;9.62;63.08
23172;BME280;11754;42.664;23.594;2023-10-13T05:29:50;95993.56;;;9.78;63.31
23172;BME280;11754;42.664;23.594;2023-10-13T05:32:33;96005.00;;;9.86;63.01
23172;BME280;11754;42.664;23.594;2023-10-13T05:35:20;96002.91;;;9.90;63.09
23172;BME280;11754;42.664;23.594;2023-10-13T05:38:04;96001.38;;;9.87;62.93
23172;BME280;11754;42.664;23.594;2023-10-13T05:41:05;96004.50;;;10.01;62.85
23172;BME280;11754;42.664;23.594;2023-10-13T05:43:49;96022.44;;;10.15;62.78
23172;BME280;11754;42.664;23.594;2023-10-13T05:46:33;96019.59;;;10.26;62.48
23172;BME280;11754;42.664;23.594;2023-10-13T05:49:06;96005.88;;;10.41;62.46
23172;BME280;11754;42.664;23.594;2023-10-13T05:51:41;96005.34;;;10.55;61.86
23172;BME280;11754;42.664;23.594;2023-10-13T05:54:06;96012.00;;;10.67;61.65
